Impacts METAR Board
IDs:

KBWI - Baltimore-Washington, MD, US

Updated at: 2200 UTC 21 May 2022
Potential Impact None Slight Moderate High
Time 21/10Z 21/11Z 21/12Z 21/13Z 21/14Z 21/15Z 21/16Z 21/17Z 21/18Z 21/19Z 21/20Z 21/21Z 21/22Z
Temp75 73 80 83 87 89 91 92 93 94 95 92 92
Dewpt65 66 67 67 66 68 66 66 65 65 64 67 64
Altim29.96 30.00 30.02 30.03 30.04 30.04 30.05 30.04 30.04 30.03 30.01 30.01 30.01
VIS10 10 9 10 10 10 10 10 10 10 10 10 10
CIG-- -- 250 250 250 250 250 250 250 250 250 -- --
CoverSCTSCTBKNBKNBKNBKNBKNBKNBKNBKNBKNSCTSCT
FltCatVFRVFRVFRVFRVFRVFRVFRVFRVFRVFRVFRVFRVFR
WX--------------------------
WDir028025025002700260220210190150190
WSpd0 5 5 3 0 5 3 5 4 5 6 7 7
WGst-- -- -- -- -- -- -- -- -- -- -- 15 14
Raw hourly METARs
KBWI 210954Z 00000KT 10SM FEW200 SCT250 24/18 A2996 RMK AO2 SLP145 T02390183 $
KBWI 211054Z 28005KT 10SM FEW150 SCT250 23/19 A3000 RMK AO2 SLP157 ACC DSNT S-SW T02280189 $
KBWI 211154Z 25005KT 9SM FEW080 SCT150 BKN250 27/19 A3002 RMK AO2 SLP165 T02670194 10283 20206 51034 $
KBWI 211254Z 25003KT 10SM FEW150 BKN250 28/19 A3003 RMK AO2 SLP167 T02830194 $
KBWI 211354Z 00000KT 10SM FEW180 BKN250 31/19 A3004 RMK AO2 SLP171 T03060189 $
KBWI 211454Z 27005KT 10SM BKN250 32/20 A3004 RMK AO2 SLP171 T03170200 50005 $
KBWI 211554Z VRB03KT 10SM FEW065 BKN250 33/19 A3005 RMK AO2 SLP173 T03280189 $
KBWI 211654Z 26005KT 10SM FEW065 SCT180 BKN250 33/19 A3004 RMK AO2 SLP173 T03330189 $
KBWI 211754Z 22004KT 10SM FEW065 SCT150 BKN250 34/18 A3004 RMK AO2 SLP170 T03390183 10339 20267 58001 $
KBWI 211854Z 21005KT 10SM SCT065 SCT150 BKN250 34/18 A3003 RMK AO2 SLP167 T03440183 $
KBWI 211954Z 19006KT 10SM SCT070 BKN250 35/18 A3001 RMK AO2 SLP162 T03500178 $
KBWI 212054Z 15007G15KT 10SM SCT065 SCT250 33/19 A3001 RMK AO2 SLP160 T03330194 57010 $
KBWI 212154Z 19007G14KT 10SM SCT080 SCT250 33/18 A3001 RMK AO2 SLP160 T03330178 $



Page loaded:  22:25 UTC  |   03:25 PM Pacific  |   04:25 PM Mountain  |   05:25 PM Central  |   06:25 PM Eastern

 

ADVISORIES

FORECASTS

FORECASTS

OBSERVATIONS

USER TOOLS

ABOUT US